Estació municipal de St. Hilari Sacalm (La Selva, Guilleries)

Consulta les dades en temps real de l'estació municipal de St. Hilari Sacalm





Hora UTC 05:05
Temperatura 19.4 ºC
Humitat 80.1 %
Pressió 1023.3 hPa
Pluja 0.0 mm
Velocitat vent 0.0 km/h
Direcció vent NNE
Radiació solar 0.5 W/m²

Webcam

Dades diàries 2026-09-04



Hora UTC (hivern +1h; estiu +2h)
Temperatura (ºC) Humitat (%) Pressió (hPa) Velocitat vent (km/h) Precipitació (mm) Radiació solar (W/m²)
Hora UTC Aire Humitat Pressió Vel. Dir. Vel. Max Dir. Intent. màx 5 min. Rad. Sol.
00:05 20.0 75.8 1024.8 0.0 NNE 0.0 WNW 0.0 0.1
00:10 20.0 76.3 1024.7 0.0 NNE 0.0 W 0.0 0.1
00:15 20.1 76.4 1024.7 0.0 NNE 0.0 W 0.0 0.1
00:20 20.1 75.8 1024.7 0.0 NNE 0.0 SW 0.0 0.1
00:25 20.1 75.9 1024.7 0.0 NNE 0.0 WSW 0.0 0.1
00:30 20.1 76.4 1024.6 0.0 NNE 0.0 W 0.0 0.1
00:35 20.3 76.6 1024.5 0.0 NNE 0.0 WNW 0.0 0.1
00:40 20.5 75.4 1024.5 0.0 NNE 0.0 W 0.0 0.1
00:45 20.5 75.2 1024.5 0.0 NNE 0.0 WSW 0.0 0.1
00:50 20.4 75.1 1024.5 0.0 NNE 0.0 WSW 0.0 0.1
00:55 20.2 76.1 1024.4 0.0 NNE 0.0 SSW 0.0 0.1
01:00 20.1 77.1 1024.4 0.0 NNE 0.0 SW 0.0 0.1
01:05 20.0 77.6 1024.3 0.0 NNE 0.0 WNW 0.0 0.1
01:10 19.9 78.0 1024.3 0.0 NNE 0.0 W 0.0 0.1
01:15 19.9 78.2 1024.3 0.0 NNE 0.0 WNW 0.0 0.1
01:20 19.9 78.5 1024.2 0.0 NNE 0.0 W 0.0 0.1
01:25 20.0 78.1 1024.2 0.0 NNE 0.0 WSW 0.0 0.1
01:30 20.1 77.2 1024.2 0.0 NNE 0.0 S 0.0 0.1
01:35 20.0 77.7 1024.1 0.0 NNE 0.0 SW 0.0 0.2
01:40 20.0 78.2 1024.1 0.0 NNE 0.0 SW 0.0 0.1
01:45 20.1 77.8 1024.1 0.0 NNE 0.0 S 0.0 0.2
01:50 20.0 77.8 1024.1 0.0 NNE 0.0 SSW 0.0 0.1
01:55 20.0 77.8 1024.1 0.0 NNE 0.0 WSW 0.0 0.1
02:00 20.0 77.6 1024.0 0.0 NNE 0.0 S 0.0 0.1
02:05 20.1 77.2 1024.0 0.0 NNE 0.0 SSW 0.0 0.1
02:10 20.1 76.9 1024.0 0.0 NNE 0.0 SSW 0.0 0.1
02:15 20.0 76.8 1024.0 0.0 NNE 0.0 SSW 0.0 0.1
02:20 19.9 77.2 1023.9 0.0 NNE 0.0 S 0.0 0.1
02:25 19.8 77.5 1023.9 0.0 NNE 0.0 SW 0.0 0.1
02:30 19.9 76.7 1023.9 0.0 NNE 0.0 S 0.0 0.1
02:35 20.0 76.5 1023.9 0.0 NNE 0.0 S 0.0 0.1
02:40 19.8 77.0 1023.8 0.0 NNE 0.0 SSW 0.0 0.2
02:45 19.8 77.2 1023.8 0.0 NNE 0.0 SW 0.0 0.2
02:50 19.8 76.9 1023.8 0.0 NNE 0.0 SSW 0.0 0.1
02:55 19.6 77.0 1023.8 0.0 NNE 0.0 SW 0.0 0.2
03:00 19.5 77.3 1023.8 0.0 NNE 0.0 WSW 0.0 0.1
03:05 19.5 77.1 1023.8 0.0 NNE 0.0 W 0.0 0.1
03:10 19.5 77.3 1023.8 0.0 NNE 0.0 S 0.0 0.1
03:15 19.5 77.1 1023.8 0.0 NNE 0.0 NW 0.0 0.1
03:20 19.5 76.9 1023.7 0.0 NNE 0.0 W 0.0 0.1
03:25 19.6 77.0 1023.6 0.0 NNE 0.0 W 0.0 0.1
03:30 19.7 76.8 1023.6 0.0 NNE 0.0 WNW 0.0 0.1
03:35 19.5 77.1 1023.5 0.0 NNE 0.0 WSW 0.0 0.1
03:40 19.3 77.6 1023.5 0.0 NNE 0.0 SW 0.0 0.1
03:45 19.1 78.1 1023.5 0.0 NNE 0.0 SW 0.0 0.1
03:50 19.1 78.8 1023.5 0.0 NNE 0.0 W 0.0 0.1
03:55 19.2 78.7 1023.5 0.0 NNE 0.0 S 0.0 0.1
04:00 19.2 79.1 1023.5 0.0 NNE 0.0 WNW 0.0 0.1
04:05 19.3 79.0 1023.4 0.0 NNE 0.0 WSW 0.0 0.1
04:10 19.2 79.1 1023.4 0.0 NNE 0.0 SW 0.0 0.1
04:15 19.3 79.6 1023.3 0.0 NNE 0.0 W 0.0 0.1
04:20 19.2 79.2 1023.3 0.0 NNE 0.0 WSW 0.0 0.1
04:25 19.3 80.1 1023.3 0.0 NNE 0.0 WSW 0.0 0.1
04:30 19.3 79.9 1023.3 0.0 NNE 0.0 NW 0.0 0.1
04:35 19.2 80.0 1023.3 0.0 NNE 0.0 W 0.0 0.1
04:40 19.1 80.5 1023.3 0.0 NNE 0.0 SW 0.0 0.1
04:45 19.1 81.2 1023.3 0.0 NNE 0.0 SW 0.0 0.1
04:50 19.2 80.9 1023.3 0.0 NNE 0.0 WSW 0.0 0.2
04:55 19.2 80.8 1023.3 0.0 NNE 0.0 W 0.0 0.2
05:00 19.2 80.7 1023.3 0.0 NNE 0.0 WSW 0.0 0.2
05:05 19.4 80.1 1023.3 0.0 NNE 0.0 W 0.0 0.5
Màxima 20.5 81.2 1024.8 0.0 NNE 0.0 W 0.0 0.5
Mínima 19.1 75.1 1023.3
Total 0.0